sensor_id;sensor_type;location;lat;lon;timestamp;pressure;altitude;pressure_sealevel;temperature;humidity
77583;BME280;66726;52.388;9.986;2023-04-29T00:00:34;100347.81;;;12.04;87.76
77583;BME280;66726;52.388;9.986;2023-04-29T00:03:06;100344.81;;;11.99;87.58
77583;BME280;66726;52.388;9.986;2023-04-29T00:05:39;100353.44;;;11.94;87.60
77583;BME280;66726;52.388;9.986;2023-04-29T00:08:11;100344.34;;;11.95;87.20
77583;BME280;66726;52.388;9.986;2023-04-29T00:10:43;100345.53;;;11.93;88.14
77583;BME280;66726;52.388;9.986;2023-04-29T00:13:16;100341.84;;;11.94;88.19
77583;BME280;66726;52.388;9.986;2023-04-29T00:15:48;100341.50;;;11.97;87.16
77583;BME280;66726;52.388;9.986;2023-04-29T00:18:20;100346.50;;;12.00;87.01
77583;BME280;66726;52.388;9.986;2023-04-29T00:20:52;100338.16;;;11.95;87.58
77583;BME280;66726;52.388;9.986;2023-04-29T00:23:24;100341.84;;;11.94;87.26
77583;BME280;66726;52.388;9.986;2023-04-29T00:25:57;100341.19;;;11.92;87.22
77583;BME280;66726;52.388;9.986;2023-04-29T00:28:29;100340.53;;;11.90;87.20
77583;BME280;66726;52.388;9.986;2023-04-29T00:31:01;100340.91;;;11.87;87.83
77583;BME280;66726;52.388;9.986;2023-04-29T00:33:33;100338.56;;;11.84;87.61
77583;BME280;66726;52.388;9.986;2023-04-29T00:36:04;100347.47;;;11.84;87.58
77583;BME280;66726;52.388;9.986;2023-04-29T00:38:36;100358.19;;;11.84;87.46
77583;BME280;66726;52.388;9.986;2023-04-29T00:41:10;100345.25;;;11.88;86.44
77583;BME280;66726;52.388;9.986;2023-04-29T00:43:42;100349.59;;;11.89;87.21
77583;BME280;66726;52.388;9.986;2023-04-29T00:46:14;100342.56;;;11.88;87.25
77583;BME280;66726;52.388;9.986;2023-04-29T00:48:46;100353.00;;;11.83;87.65
77583;BME280;66726;52.388;9.986;2023-04-29T00:51:19;100357.03;;;11.79;87.25
77583;BME280;66726;52.388;9.986;2023-04-29T00:53:51;100364.44;;;11.77;87.19
77583;BME280;66726;52.388;9.986;2023-04-29T00:56:24;100365.06;;;11.79;86.92
77583;BME280;66726;52.388;9.986;2023-04-29T00:58:56;100360.06;;;11.76;87.64
77583;BME280;66726;52.388;9.986;2023-04-29T01:01:29;100379.69;;;11.68;88.11
77583;BME280;66726;52.388;9.986;2023-04-29T01:04:01;100367.81;;;11.71;87.83
77583;BME280;66726;52.388;9.986;2023-04-29T01:06:44;100374.53;;;11.66;87.84
77583;BME280;66726;52.388;9.986;2023-04-29T01:09:35;100370.84;;;11.67;88.22
77583;BME280;66726;52.388;9.986;2023-04-29T01:12:19;100378.88;;;11.67;87.94
77583;BME280;66726;52.388;9.986;2023-04-29T01:15:03;100384.03;;;11.69;87.70
77583;BME280;66726;52.388;9.986;2023-04-29T01:17:42;100382.06;;;11.63;88.77
77583;BME280;66726;52.388;9.986;2023-04-29T01:20:16;100387.59;;;11.61;89.16
77583;BME280;66726;52.388;9.986;2023-04-29T01:22:48;100380.97;;;11.49;89.39
77583;BME280;66726;52.388;9.986;2023-04-29T01:25:21;100384.66;;;11.48;89.77
77583;BME280;66726;52.388;9.986;2023-04-29T01:28:07;100380.66;;;11.44;89.78
77583;BME280;66726;52.388;9.986;2023-04-29T01:30:59;100379.28;;;11.48;90.10
77583;BME280;66726;52.388;9.986;2023-04-29T01:33:43;100383.69;;;11.41;90.29
77583;BME280;66726;52.388;9.986;2023-04-29T01:36:29;100392.41;;;11.43;90.28
77583;BME280;66726;52.388;9.986;2023-04-29T01:39:13;100396.44;;;11.39;91.12
77583;BME280;66726;52.388;9.986;2023-04-29T01:42:02;100390.06;;;11.40;90.81
77583;BME280;66726;52.388;9.986;2023-04-29T01:44:37;100394.59;;;11.40;90.69
77583;BME280;66726;52.388;9.986;2023-04-29T01:47:14;100397.94;;;11.34;90.88
77583;BME280;66726;52.388;9.986;2023-04-29T01:49:47;100408.66;;;11.34;91.18
77583;BME280;66726;52.388;9.986;2023-04-29T01:52:19;100409.06;;;11.23;92.05
77583;BME280;66726;52.388;9.986;2023-04-29T01:54:52;100411.91;;;11.21;91.91
77583;BME280;66726;52.388;9.986;2023-04-29T01:57:25;100419.94;;;11.21;92.23
77583;BME280;66726;52.388;9.986;2023-04-29T01:59:57;100417.94;;;11.23;91.96
77583;BME280;66726;52.388;9.986;2023-04-29T02:02:29;100420.78;;;11.22;91.67
77583;BME280;66726;52.388;9.986;2023-04-29T02:05:01;100420.09;;;11.28;91.58
77583;BME280;66726;52.388;9.986;2023-04-29T02:07:33;100419.94;;;11.21;91.92
77583;BME280;66726;52.388;9.986;2023-04-29T02:10:06;100428.97;;;11.20;92.71
77583;BME280;66726;52.388;9.986;2023-04-29T02:12:39;100430.34;;;11.16;92.63
77583;BME280;66726;52.388;9.986;2023-04-29T02:15:12;100436.72;;;11.15;92.51
77583;BME280;66726;52.388;9.986;2023-04-29T02:17:44;100434.53;;;11.18;92.33
77583;BME280;66726;52.388;9.986;2023-04-29T02:20:16;100441.38;;;11.21;91.90
77583;BME280;66726;52.388;9.986;2023-04-29T02:22:48;100434.88;;;11.15;92.74
77583;BME280;66726;52.388;9.986;2023-04-29T02:25:21;100448.75;;;11.19;92.59
77583;BME280;66726;52.388;9.986;2023-04-29T02:27:54;100452.44;;;11.26;92.52
77583;BME280;66726;52.388;9.986;2023-04-29T02:30:27;100459.97;;;11.23;92.27
77583;BME280;66726;52.388;9.986;2023-04-29T02:32:59;100460.28;;;11.28;91.08
77583;BME280;66726;52.388;9.986;2023-04-29T02:35:31;100466.19;;;11.23;90.53
77583;BME280;66726;52.388;9.986;2023-04-29T02:38:05;100466.97;;;11.24;90.92
77583;BME280;66726;52.388;9.986;2023-04-29T02:40:42;100469.22;;;11.12;91.12
77583;BME280;66726;52.388;9.986;2023-04-29T02:43:15;100471.88;;;11.12;90.36
77583;BME280;66726;52.388;9.986;2023-04-29T02:45:47;100481.25;;;11.16;90.61
77583;BME280;66726;52.388;9.986;2023-04-29T02:48:19;100480.91;;;11.11;90.52
77583;BME280;66726;52.388;9.986;2023-04-29T02:50:51;100481.91;;;11.10;89.78
77583;BME280;66726;52.388;9.986;2023-04-29T02:53:23;100483.09;;;11.07;90.48
77583;BME280;66726;52.388;9.986;2023-04-29T02:55:55;100478.09;;;11.04;90.51
77583;BME280;66726;52.388;9.986;2023-04-29T02:58:30;100485.78;;;11.07;89.83
77583;BME280;66726;52.388;9.986;2023-04-29T03:01:02;100490.28;;;11.07;89.78
77583;BME280;66726;52.388;9.986;2023-04-29T03:03:34;100489.44;;;11.06;89.27
77583;BME280;66726;52.388;9.986;2023-04-29T03:06:06;100486.97;;;11.05;89.15
77583;BME280;66726;52.388;9.986;2023-04-29T03:08:38;100496.00;;;11.04;89.23
77583;BME280;66726;52.388;9.986;2023-04-29T03:11:09;100497.69;;;11.05;88.83
77583;BME280;66726;52.388;9.986;2023-04-29T03:13:43;100491.97;;;11.00;88.74
77583;BME280;66726;52.388;9.986;2023-04-29T03:16:15;100503.03;;;10.97;88.58
77583;BME280;66726;52.388;9.986;2023-04-29T03:18:47;100494.84;;;10.90;88.38
77583;BME280;66726;52.388;9.986;2023-04-29T03:21:19;100501.19;;;10.89;87.89
77583;BME280;66726;52.388;9.986;2023-04-29T03:23:51;100500.38;;;10.81;88.78
77583;BME280;66726;52.388;9.986;2023-04-29T03:26:23;100511.25;;;10.71;88.57
77583;BME280;66726;52.388;9.986;2023-04-29T03:28:56;100503.22;;;10.71;88.66
77583;BME280;66726;52.388;9.986;2023-04-29T03:31:29;100512.91;;;10.72;88.08
77583;BME280;66726;52.388;9.986;2023-04-29T03:34:01;100513.94;;;10.71;88.66
77583;BME280;66726;52.388;9.986;2023-04-29T03:36:35;100519.09;;;10.56;88.78
77583;BME280;66726;52.388;9.986;2023-04-29T03:39:07;100526.44;;;10.62;88.43
77583;BME280;66726;52.388;9.986;2023-04-29T03:41:39;100529.97;;;10.63;87.97
77583;BME280;66726;52.388;9.986;2023-04-29T03:44:12;100522.28;;;10.68;87.36
77583;BME280;66726;52.388;9.986;2023-04-29T03:46:44;100525.31;;;10.65;87.48
77583;BME280;66726;52.388;9.986;2023-04-29T03:49:16;100523.47;;;10.57;87.56
77583;BME280;66726;52.388;9.986;2023-04-29T03:51:48;100526.78;;;10.59;87.67
77583;BME280;66726;52.388;9.986;2023-04-29T03:54:20;100540.16;;;10.51;88.12
77583;BME280;66726;52.388;9.986;2023-04-29T03:56:51;100533.81;;;10.44;88.35
77583;BME280;66726;52.388;9.986;2023-04-29T03:59:27;100542.81;;;10.51;88.41
77583;BME280;66726;52.388;9.986;2023-04-29T04:01:58;100547.19;;;10.52;88.17
77583;BME280;66726;52.388;9.986;2023-04-29T04:04:30;100553.88;;;10.48;88.51
77583;BME280;66726;52.388;9.986;2023-04-29T04:07:03;100555.03;;;10.46;88.96
77583;BME280;66726;52.388;9.986;2023-04-29T04:09:35;100558.22;;;10.49;88.29
77583;BME280;66726;52.388;9.986;2023-04-29T04:12:08;100569.94;;;10.40;88.66
77583;BME280;66726;52.388;9.986;2023-04-29T04:14:41;100575.56;;;10.29;89.52
77583;BME280;66726;52.388;9.986;2023-04-29T04:17:13;100578.75;;;10.33;89.23
77583;BME280;66726;52.388;9.986;2023-04-29T04:19:45;100578.56;;;10.26;89.83
77583;BME280;66726;52.388;9.986;2023-04-29T04:22:17;100592.44;;;10.22;89.72
77583;BME280;66726;52.388;9.986;2023-04-29T04:24:48;100589.44;;;10.25;89.41
77583;BME280;66726;52.388;9.986;2023-04-29T04:27:22;100588.94;;;10.29;88.83
77583;BME280;66726;52.388;9.986;2023-04-29T04:29:57;100596.00;;;10.30;88.67
77583;BME280;66726;52.388;9.986;2023-04-29T04:32:29;100601.50;;;10.29;88.48
77583;BME280;66726;52.388;9.986;2023-04-29T04:35:03;100599.13;;;10.26;88.61
77583;BME280;66726;52.388;9.986;2023-04-29T04:37:35;100609.97;;;10.16;88.94
77583;BME280;66726;52.388;9.986;2023-04-29T04:40:08;100609.66;;;10.19;89.03
77583;BME280;66726;52.388;9.986;2023-04-29T04:42:41;100611.59;;;10.09;89.08
77583;BME280;66726;52.388;9.986;2023-04-29T04:45:14;100621.06;;;10.03;89.55
77583;BME280;66726;52.388;9.986;2023-04-29T04:47:46;100622.44;;;10.07;89.53
77583;BME280;66726;52.388;9.986;2023-04-29T04:50:19;100621.53;;;10.16;88.94
77583;BME280;66726;52.388;9.986;2023-04-29T04:52:50;100621.19;;;10.20;88.33
77583;BME280;66726;52.388;9.986;2023-04-29T04:55:22;100631.38;;;10.16;88.54
77583;BME280;66726;52.388;9.986;2023-04-29T04:57:54;100634.28;;;10.05;89.02
77583;BME280;66726;52.388;9.986;2023-04-29T05:00:27;100639.00;;;10.11;89.00
77583;BME280;66726;52.388;9.986;2023-04-29T05:02:59;100642.97;;;10.07;89.32
77583;BME280;66726;52.388;9.986;2023-04-29T05:05:34;100648.63;;;9.96;89.12
77583;BME280;66726;52.388;9.986;2023-04-29T05:08:07;100655.91;;;9.86;89.86
77583;BME280;66726;52.388;9.986;2023-04-29T05:10:39;100659.06;;;9.81;89.33
77583;BME280;66726;52.388;9.986;2023-04-29T05:13:13;100657.59;;;9.87;89.64
77583;BME280;66726;52.388;9.986;2023-04-29T05:15:46;100668.66;;;9.92;88.98
77583;BME280;66726;52.388;9.986;2023-04-29T05:18:18;100668.66;;;9.92;88.69
77583;BME280;66726;52.388;9.986;2023-04-29T05:20:50;100666.34;;;9.97;88.43
77583;BME280;66726;52.388;9.986;2023-04-29T05:23:22;100670.81;;;9.88;88.86
77583;BME280;66726;52.388;9.986;2023-04-29T05:25:54;100678.63;;;9.82;89.17
77583;BME280;66726;52.388;9.986;2023-04-29T05:28:26;100677.91;;;9.80;88.55
77583;BME280;66726;52.388;9.986;2023-04-29T05:30:59;100678.44;;;9.83;88.63
77583;BME280;66726;52.388;9.986;2023-04-29T05:33:31;100682.03;;;9.92;88.42
77583;BME280;66726;52.388;9.986;2023-04-29T05:36:03;100686.31;;;9.85;88.73
77583;BME280;66726;52.388;9.986;2023-04-29T05:38:36;100692.91;;;9.73;89.18
77583;BME280;66726;52.388;9.986;2023-04-29T05:41:07;100695.13;;;9.77;88.94
77583;BME280;66726;52.388;9.986;2023-04-29T05:43:39;100699.03;;;9.83;88.72
77583;BME280;66726;52.388;9.986;2023-04-29T05:46:12;100704.75;;;9.70;89.56
77583;BME280;66726;52.388;9.986;2023-04-29T05:48:44;100709.25;;;9.69;89.82
77583;BME280;66726;52.388;9.986;2023-04-29T05:51:16;100707.59;;;9.68;89.14
77583;BME280;66726;52.388;9.986;2023-04-29T05:53:48;100717.13;;;9.71;88.77
77583;BME280;66726;52.388;9.986;2023-04-29T05:56:19;100724.72;;;9.76;88.75
77583;BME280;66726;52.388;9.986;2023-04-29T05:58:52;100722.69;;;9.78;88.73
77583;BME280;66726;52.388;9.986;2023-04-29T06:01:25;100720.03;;;9.78;89.11
77583;BME280;66726;52.388;9.986;2023-04-29T06:03:56;100726.16;;;9.70;89.04
77583;BME280;66726;52.388;9.986;2023-04-29T06:06:30;100737.06;;;9.77;88.50
77583;BME280;66726;52.388;9.986;2023-04-29T06:09:03;100733.41;;;9.78;88.49
77583;BME280;66726;52.388;9.986;2023-04-29T06:11:45;100741.03;;;9.73;88.69
77583;BME280;66726;52.388;9.986;2023-04-29T06:14:17;100746.44;;;9.81;88.77
77583;BME280;66726;52.388;9.986;2023-04-29T06:16:50;100749.13;;;9.81;89.01
77583;BME280;66726;52.388;9.986;2023-04-29T06:19:23;100763.41;;;9.89;88.45
77583;BME280;66726;52.388;9.986;2023-04-29T06:21:54;100763.94;;;9.93;88.35
77583;BME280;66726;52.388;9.986;2023-04-29T06:24:28;100764.22;;;9.90;88.65
77583;BME280;66726;52.388;9.986;2023-04-29T06:27:00;100780.81;;;9.93;88.30
77583;BME280;66726;52.388;9.986;2023-04-29T06:29:33;100784.50;;;9.92;89.08
77583;BME280;66726;52.388;9.986;2023-04-29T06:32:07;100791.59;;;9.84;88.57
77583;BME280;66726;52.388;9.986;2023-04-29T06:34:38;100792.13;;;9.87;88.57
77583;BME280;66726;52.388;9.986;2023-04-29T06:37:12;100790.75;;;9.83;88.45
77583;BME280;66726;52.388;9.986;2023-04-29T06:39:44;100795.28;;;9.83;88.54
77583;BME280;66726;52.388;9.986;2023-04-29T06:42:17;100797.25;;;9.81;88.23
77583;BME280;66726;52.388;9.986;2023-04-29T06:44:49;100801.94;;;9.79;88.02
77583;BME280;66726;52.388;9.986;2023-04-29T06:47:22;100800.91;;;9.80;87.62
77583;BME280;66726;52.388;9.986;2023-04-29T06:49:54;100809.31;;;9.85;87.59
77583;BME280;66726;52.388;9.986;2023-04-29T06:52:26;100812.66;;;9.87;87.25
77583;BME280;66726;52.388;9.986;2023-04-29T06:54:59;100829.03;;;9.84;87.39
77583;BME280;66726;52.388;9.986;2023-04-29T06:57:31;100834.25;;;9.85;87.41
77583;BME280;66726;52.388;9.986;2023-04-29T07:00:03;100832.25;;;9.87;87.91
77583;BME280;66726;52.388;9.986;2023-04-29T07:02:36;100838.81;;;9.93;87.28
77583;BME280;66726;52.388;9.986;2023-04-29T07:05:10;100841.31;;;9.94;87.54
77583;BME280;66726;52.388;9.986;2023-04-29T07:07:42;100846.91;;;10.01;87.09
77583;BME280;66726;52.388;9.986;2023-04-29T07:10:14;100845.47;;;10.06;87.03
77583;BME280;66726;52.388;9.986;2023-04-29T07:12:46;100844.31;;;10.09;86.42
77583;BME280;66726;52.388;9.986;2023-04-29T07:15:20;100855.84;;;10.09;86.22
77583;BME280;66726;52.388;9.986;2023-04-29T07:17:53;100867.94;;;10.13;86.46
77583;BME280;66726;52.388;9.986;2023-04-29T07:20:25;100873.84;;;10.17;86.48
77583;BME280;66726;52.388;9.986;2023-04-29T07:22:57;100872.69;;;10.20;85.83
77583;BME280;66726;52.388;9.986;2023-04-29T07:25:30;100886.91;;;10.20;86.26
77583;BME280;66726;52.388;9.986;2023-04-29T07:28:02;100883.94;;;10.23;86.28
77583;BME280;66726;52.388;9.986;2023-04-29T07:30:34;100896.00;;;10.27;86.16
77583;BME280;66726;52.388;9.986;2023-04-29T07:33:07;100896.91;;;10.36;85.59
77583;BME280;66726;52.388;9.986;2023-04-29T07:35:39;100904.47;;;10.40;85.63
77583;BME280;66726;52.388;9.986;2023-04-29T07:38:13;100907.69;;;10.44;85.85
77583;BME280;66726;52.388;9.986;2023-04-29T07:40:45;100910.88;;;10.47;85.56
77583;BME280;66726;52.388;9.986;2023-04-29T07:43:17;100909.56;;;10.51;84.91
77583;BME280;66726;52.388;9.986;2023-04-29T07:45:49;100909.28;;;10.54;85.34
77583;BME280;66726;52.388;9.986;2023-04-29T07:48:22;100923.31;;;10.56;84.94
77583;BME280;66726;52.388;9.986;2023-04-29T07:50:54;100919.66;;;10.57;83.67
77583;BME280;66726;52.388;9.986;2023-04-29T07:53:26;100926.06;;;10.64;84.15
77583;BME280;66726;52.388;9.986;2023-04-29T07:55:58;100929.94;;;10.70;84.38
77583;BME280;66726;52.388;9.986;2023-04-29T07:58:32;100941.97;;;10.66;83.08
77583;BME280;66726;52.388;9.986;2023-04-29T08:01:09;100937.00;;;10.71;83.48
77583;BME280;66726;52.388;9.986;2023-04-29T08:03:43;100934.69;;;10.76;84.57
77583;BME280;66726;52.388;9.986;2023-04-29T08:06:17;100936.22;;;10.79;83.08
77583;BME280;66726;52.388;9.986;2023-04-29T08:08:51;100946.63;;;10.82;82.78
77583;BME280;66726;52.388;9.986;2023-04-29T08:11:24;100943.63;;;10.85;82.85
77583;BME280;66726;52.388;9.986;2023-04-29T08:13:56;100951.16;;;10.89;82.65
77583;BME280;66726;52.388;9.986;2023-04-29T08:16:29;100952.91;;;10.98;82.56
77583;BME280;66726;52.388;9.986;2023-04-29T08:19:02;100955.81;;;11.05;81.28
77583;BME280;66726;52.388;9.986;2023-04-29T08:21:34;100967.41;;;11.13;80.87
77583;BME280;66726;52.388;9.986;2023-04-29T08:24:06;100972.97;;;11.20;80.71
77583;BME280;66726;52.388;9.986;2023-04-29T08:26:38;100963.94;;;11.21;80.25
77583;BME280;66726;52.388;9.986;2023-04-29T08:29:10;100966.81;;;11.28;80.73
77583;BME280;66726;52.388;9.986;2023-04-29T08:31:42;100962.06;;;11.47;79.60
77583;BME280;66726;52.388;9.986;2023-04-29T08:34:15;100970.84;;;11.65;76.21
77583;BME280;66726;52.388;9.986;2023-04-29T08:36:47;100967.84;;;11.68;75.96
77583;BME280;66726;52.388;9.986;2023-04-29T08:39:19;100972.22;;;11.69;76.30
77583;BME280;66726;52.388;9.986;2023-04-29T08:41:51;100984.16;;;11.75;76.96
77583;BME280;66726;52.388;9.986;2023-04-29T08:44:24;100984.69;;;11.79;77.40
77583;BME280;66726;52.388;9.986;2023-04-29T08:46:56;100978.31;;;11.80;75.51
77583;BME280;66726;52.388;9.986;2023-04-29T08:49:30;100979.69;;;11.84;75.21
77583;BME280;66726;52.388;9.986;2023-04-29T08:52:04;100984.06;;;11.85;75.32
77583;BME280;66726;52.388;9.986;2023-04-29T08:54:36;100984.72;;;11.87;74.18
77583;BME280;66726;52.388;9.986;2023-04-29T08:57:11;100993.63;;;11.87;72.55
77583;BME280;66726;52.388;9.986;2023-04-29T08:59:44;100993.09;;;11.92;73.45
77583;BME280;66726;52.388;9.986;2023-04-29T09:02:19;100996.47;;;11.94;74.23
77583;BME280;66726;52.388;9.986;2023-04-29T09:05:04;100993.97;;;12.00;74.34
77583;BME280;66726;52.388;9.986;2023-04-29T09:07:40;100998.03;;;12.04;75.32
77583;BME280;66726;52.388;9.986;2023-04-29T09:10:13;101001.88;;;12.10;75.58
77583;BME280;66726;52.388;9.986;2023-04-29T09:12:46;101001.56;;;12.13;75.82
77583;BME280;66726;52.388;9.986;2023-04-29T09:15:18;101002.59;;;12.12;74.34
77583;BME280;66726;52.388;9.986;2023-04-29T09:17:50;101004.25;;;12.13;74.45
77583;BME280;66726;52.388;9.986;2023-04-29T09:20:31;101013.13;;;12.13;73.46
77583;BME280;66726;52.388;9.986;2023-04-29T09:23:04;101021.38;;;12.20;73.64
77583;BME280;66726;52.388;9.986;2023-04-29T09:25:36;101025.09;;;12.27;73.27
77583;BME280;66726;52.388;9.986;2023-04-29T09:28:17;101032.66;;;12.32;73.35
77583;BME280;66726;52.388;9.986;2023-04-29T09:30:49;101020.72;;;12.34;73.18
77583;BME280;66726;52.388;9.986;2023-04-29T09:33:21;101031.66;;;12.41;72.46
77583;BME280;66726;52.388;9.986;2023-04-29T09:35:54;101029.16;;;12.47;70.87
77583;BME280;66726;52.388;9.986;2023-04-29T09:38:26;101032.50;;;12.57;69.36
77583;BME280;66726;52.388;9.986;2023-04-29T09:40:58;101029.84;;;12.57;69.14
77583;BME280;66726;52.388;9.986;2023-04-29T09:43:31;101033.53;;;12.48;68.74
77583;BME280;66726;52.388;9.986;2023-04-29T09:46:03;101032.53;;;12.49;71.14
77583;BME280;66726;52.388;9.986;2023-04-29T09:48:35;101032.00;;;12.54;70.39
77583;BME280;66726;52.388;9.986;2023-04-29T09:51:08;101037.03;;;12.57;71.01
77583;BME280;66726;52.388;9.986;2023-04-29T09:53:40;101040.41;;;12.59;71.05
77583;BME280;66726;52.388;9.986;2023-04-29T09:56:13;101044.09;;;12.58;68.48
77583;BME280;66726;52.388;9.986;2023-04-29T09:58:45;101051.16;;;12.59;68.42
77583;BME280;66726;52.388;9.986;2023-04-29T10:01:17;101046.28;;;12.54;67.65
77583;BME280;66726;52.388;9.986;2023-04-29T10:03:53;101054.84;;;12.58;69.16
77583;BME280;66726;52.388;9.986;2023-04-29T10:06:27;101059.56;;;12.56;69.30
77583;BME280;66726;52.388;9.986;2023-04-29T10:08:59;101062.06;;;12.49;68.77
77583;BME280;66726;52.388;9.986;2023-04-29T10:11:31;101064.41;;;12.52;69.14
77583;BME280;66726;52.388;9.986;2023-04-29T10:14:06;101058.72;;;12.55;69.05
77583;BME280;66726;52.388;9.986;2023-04-29T10:16:46;101063.59;;;12.60;69.25
77583;BME280;66726;52.388;9.986;2023-04-29T10:19:34;101064.41;;;12.60;67.45
77583;BME280;66726;52.388;9.986;2023-04-29T10:22:16;101064.91;;;12.64;68.77
77583;BME280;66726;52.388;9.986;2023-04-29T10:24:52;101065.94;;;12.71;69.17
77583;BME280;66726;52.388;9.986;2023-04-29T10:27:27;101062.75;;;12.76;68.88
77583;BME280;66726;52.388;9.986;2023-04-29T10:30:01;101059.41;;;12.74;68.75
77583;BME280;66726;52.388;9.986;2023-04-29T10:32:36;101063.44;;;12.78;69.07
77583;BME280;66726;52.388;9.986;2023-04-29T10:35:21;101066.47;;;12.83;70.20
77583;BME280;66726;52.388;9.986;2023-04-29T10:37:57;101069.50;;;12.96;70.80
77583;BME280;66726;52.388;9.986;2023-04-29T10:40:43;101071.50;;;13.02;71.01
77583;BME280;66726;52.388;9.986;2023-04-29T10:43:23;101070.16;;;13.06;70.70
77583;BME280;66726;52.388;9.986;2023-04-29T10:46:20;101071.72;;;13.16;70.63
77583;BME280;66726;52.388;9.986;2023-04-29T10:48:59;101063.81;;;13.15;70.21
77583;BME280;66726;52.388;9.986;2023-04-29T10:51:34;101070.53;;;13.19;70.65
77583;BME280;66726;52.388;9.986;2023-04-29T10:54:14;101065.16;;;13.19;69.70
77583;BME280;66726;52.388;9.986;2023-04-29T10:56:49;101069.50;;;13.12;67.68
77583;BME280;66726;52.388;9.986;2023-04-29T10:59:44;101071.19;;;13.13;66.46
77583;BME280;66726;52.388;9.986;2023-04-29T11:02:18;101073.56;;;13.16;66.33
77583;BME280;66726;52.388;9.986;2023-04-29T11:05:08;101077.94;;;13.17;65.59
77583;BME280;66726;52.388;9.986;2023-04-29T11:07:41;101071.72;;;13.16;65.33
77583;BME280;66726;52.388;9.986;2023-04-29T11:10:16;101068.34;;;13.23;65.23
77583;BME280;66726;52.388;9.986;2023-04-29T11:12:48;101064.13;;;13.36;66.98
77583;BME280;66726;52.388;9.986;2023-04-29T11:15:22;101077.91;;;13.41;64.51
77583;BME280;66726;52.388;9.986;2023-04-29T11:17:58;101073.19;;;13.43;62.69
77583;BME280;66726;52.388;9.986;2023-04-29T11:23:42;101079.06;;;13.47;62.78
77583;BME280;66726;52.388;9.986;2023-04-29T11:26:16;101072.50;;;13.49;62.85
77583;BME280;66726;52.388;9.986;2023-04-29T11:28:53;101074.53;;;13.55;63.64
77583;BME280;66726;52.388;9.986;2023-04-29T11:31:32;101079.91;;;13.55;61.36
77583;BME280;66726;52.388;9.986;2023-04-29T11:34:05;101087.28;;;13.53;60.88
77583;BME280;66726;52.388;9.986;2023-04-29T11:36:37;101074.88;;;13.52;61.97
77583;BME280;66726;52.388;9.986;2023-04-29T11:39:09;101078.72;;;13.50;61.37
77583;BME280;66726;52.388;9.986;2023-04-29T11:41:41;101091.31;;;13.49;60.20
77583;BME280;66726;52.388;9.986;2023-04-29T11:44:14;101093.00;;;13.50;61.34
77583;BME280;66726;52.388;9.986;2023-04-29T11:46:53;101083.44;;;13.56;60.55
77583;BME280;66726;52.388;9.986;2023-04-29T11:49:33;101097.19;;;13.61;61.00
77583;BME280;66726;52.388;9.986;2023-04-29T11:52:08;101103.06;;;13.64;61.86
77583;BME280;66726;52.388;9.986;2023-04-29T11:54:42;101101.88;;;13.67;60.12
77583;BME280;66726;52.388;9.986;2023-04-29T11:57:14;101101.72;;;13.68;60.22
77583;BME280;66726;52.388;9.986;2023-04-29T11:59:46;101105.41;;;13.67;60.74
77583;BME280;66726;52.388;9.986;2023-04-29T12:02:22;101115.19;;;13.68;60.06
77583;BME280;66726;52.388;9.986;2023-04-29T12:04:59;101111.50;;;13.69;60.85
77583;BME280;66726;52.388;9.986;2023-04-29T12:07:32;101109.09;;;13.75;61.70
77583;BME280;66726;52.388;9.986;2023-04-29T12:10:04;101100.69;;;13.78;59.44
77583;BME280;66726;52.388;9.986;2023-04-29T12:12:38;101108.75;;;13.78;60.62
77583;BME280;66726;52.388;9.986;2023-04-29T12:15:14;101109.25;;;13.81;60.10
77583;BME280;66726;52.388;9.986;2023-04-29T12:17:47;101114.13;;;13.86;60.81
77583;BME280;66726;52.388;9.986;2023-04-29T12:20:19;101105.06;;;13.87;60.64
77583;BME280;66726;52.388;9.986;2023-04-29T12:22:51;101103.72;;;13.83;61.09
77583;BME280;66726;52.388;9.986;2023-04-29T12:25:27;101113.78;;;13.81;60.30
77583;BME280;66726;52.388;9.986;2023-04-29T12:28:02;101109.44;;;13.80;60.60
77583;BME280;66726;52.388;9.986;2023-04-29T12:30:38;101118.53;;;13.79;60.70
77583;BME280;66726;52.388;9.986;2023-04-29T12:33:17;101114.63;;;13.81;60.42
77583;BME280;66726;52.388;9.986;2023-04-29T12:35:49;101113.63;;;13.82;60.37
77583;BME280;66726;52.388;9.986;2023-04-29T12:38:28;101118.50;;;13.87;59.17
77583;BME280;66726;52.388;9.986;2023-04-29T12:41:01;101119.16;;;13.89;59.92
77583;BME280;66726;52.388;9.986;2023-04-29T12:43:35;101123.19;;;13.93;59.88
77583;BME280;66726;52.388;9.986;2023-04-29T12:46:09;101121.84;;;13.97;59.41
77583;BME280;66726;52.388;9.986;2023-04-29T12:48:44;101125.34;;;13.97;59.66
77583;BME280;66726;52.388;9.986;2023-04-29T12:51:17;101121.66;;;13.98;59.43
77583;BME280;66726;52.388;9.986;2023-04-29T12:53:49;101117.13;;;13.99;58.60
77583;BME280;66726;52.388;9.986;2023-04-29T12:56:21;101121.50;;;14.00;58.03
77583;BME280;66726;52.388;9.986;2023-04-29T12:58:53;101127.81;;;14.15;59.33
77583;BME280;66726;52.388;9.986;2023-04-29T13:01:25;101124.94;;;14.25;60.58
77583;BME280;66726;52.388;9.986;2023-04-29T13:03:58;101117.69;;;14.25;59.81
77583;BME280;66726;52.388;9.986;2023-04-29T13:06:31;101122.25;;;14.25;58.03
77583;BME280;66726;52.388;9.986;2023-04-29T13:09:03;101123.78;;;14.19;58.97
77583;BME280;66726;52.388;9.986;2023-04-29T13:11:35;101132.03;;;14.17;58.66
77583;BME280;66726;52.388;9.986;2023-04-29T13:14:06;101132.19;;;14.16;58.15
77583;BME280;66726;52.388;9.986;2023-04-29T13:16:38;101119.09;;;14.13;58.15
77583;BME280;66726;52.388;9.986;2023-04-29T13:19:12;101120.78;;;14.14;59.97
77583;BME280;66726;52.388;9.986;2023-04-29T13:22:04;101126.16;;;14.14;59.94
77583;BME280;66726;52.388;9.986;2023-04-29T13:24:37;101131.88;;;14.11;59.40
77583;BME280;66726;52.388;9.986;2023-04-29T13:27:10;101133.75;;;14.10;59.09
77583;BME280;66726;52.388;9.986;2023-04-29T13:29:42;101130.88;;;14.12;57.83